createdAt,value
2019-01-17T00:01:00.825Z,4.96
2019-01-17T00:04:11.697Z,4.93
2019-01-17T00:07:09.140Z,4.94
2019-01-17T00:10:05.391Z,4.95
2019-01-17T00:12:49.311Z,4.99
2019-01-17T00:15:28.325Z,5.01
2019-01-17T00:18:14.127Z,5.04
2019-01-17T00:21:12.017Z,5.12
2019-01-17T00:24:21.058Z,5.19
2019-01-17T00:27:00.896Z,5.22
2019-01-17T00:29:55.698Z,5.19
2019-01-17T00:33:00.550Z,5.25
2019-01-17T00:35:45.674Z,5.31
2019-01-17T00:38:35.485Z,5.37
2019-01-17T00:41:20.882Z,5.39
2019-01-17T00:44:08.968Z,5.41
2019-01-17T00:46:49.414Z,5.43
2019-01-17T00:49:33.515Z,5.46
2019-01-17T00:52:21.899Z,5.50
2019-01-17T00:55:00.619Z,5.56
2019-01-17T00:57:43.619Z,5.59
2019-01-17T01:00:39.529Z,5.58
2019-01-17T01:03:20.916Z,5.59
2019-01-17T01:06:01.378Z,5.58
2019-01-17T01:08:52.158Z,5.56
2019-01-17T01:11:39.920Z,5.52
2019-01-17T01:14:19.089Z,5.52
2019-01-17T01:17:20.805Z,5.50
2019-01-17T01:20:29.834Z,5.47
2019-01-17T01:23:20.026Z,5.43
2019-01-17T01:25:59.444Z,5.39
2019-01-17T01:28:56.722Z,5.37
2019-01-17T01:31:35.245Z,5.38
2019-01-17T01:34:21.740Z,5.38
2019-01-17T01:37:15.618Z,5.35
2019-01-17T01:40:02.942Z,5.34
2019-01-17T01:42:58.044Z,5.35
2019-01-17T01:45:49.429Z,5.36
2019-01-17T01:48:38.546Z,5.36
2019-01-17T01:51:31.486Z,5.36
2019-01-17T01:54:22.045Z,5.37
2019-01-17T01:56:57.195Z,5.36
2019-01-17T01:59:32.565Z,5.35
2019-01-17T02:02:06.481Z,5.35
2019-01-17T02:04:40.354Z,5.36
2019-01-17T02:07:13.915Z,5.37
2019-01-17T02:09:48.163Z,5.37
2019-01-17T02:12:21.932Z,5.37
2019-01-17T02:14:55.447Z,5.37
2019-01-17T02:17:29.024Z,5.37
2019-01-17T02:20:04.667Z,5.38
2019-01-17T02:22:38.016Z,5.37
2019-01-17T02:25:11.971Z,5.35
2019-01-17T02:27:44.776Z,5.35
2019-01-17T02:30:17.335Z,5.35
2019-01-17T02:32:50.157Z,5.36
2019-01-17T02:35:23.767Z,5.35
2019-01-17T02:37:57.899Z,5.36
2019-01-17T02:40:30.680Z,5.36
2019-01-17T02:43:04.424Z,5.35
2019-01-17T02:45:37.776Z,5.35
2019-01-17T02:48:14.506Z,5.37
2019-01-17T02:50:47.416Z,5.38
2019-01-17T02:53:23.205Z,5.39
2019-01-17T02:55:56.058Z,5.39
2019-01-17T02:58:30.280Z,5.39
2019-01-17T03:01:04.205Z,5.40
2019-01-17T03:03:40.138Z,5.39
2019-01-17T03:06:15.034Z,5.37
2019-01-17T03:08:48.297Z,5.38
2019-01-17T03:11:24.252Z,5.39
2019-01-17T03:13:57.869Z,5.39
2019-01-17T03:16:31.157Z,5.39
2019-01-17T03:19:04.612Z,5.39
2019-01-17T03:21:38.421Z,5.38
2019-01-17T03:24:11.497Z,5.39
2019-01-17T03:26:44.906Z,5.38
2019-01-17T03:29:17.649Z,5.38
2019-01-17T03:31:51.514Z,5.38
2019-01-17T03:34:25.195Z,5.38
2019-01-17T03:36:58.817Z,5.38
2019-01-17T03:39:32.877Z,5.39
2019-01-17T03:42:07.037Z,5.39
2019-01-17T03:44:39.796Z,5.39
2019-01-17T03:47:13.076Z,5.38
2019-01-17T03:49:45.819Z,5.39
2019-01-17T03:52:18.746Z,5.40
2019-01-17T03:54:53.995Z,5.40
2019-01-17T03:57:27.076Z,5.42
2019-01-17T03:59:59.896Z,5.44
2019-01-17T04:02:33.237Z,5.44
2019-01-17T04:05:07.491Z,5.45
2019-01-17T04:07:40.360Z,5.47
2019-01-17T04:10:15.152Z,5.48
2019-01-17T04:12:47.974Z,5.49
2019-01-17T04:15:20.782Z,5.51
2019-01-17T04:17:54.703Z,5.52
2019-01-17T04:20:27.522Z,5.53
2019-01-17T04:23:00.296Z,5.53
2019-01-17T04:25:33.495Z,5.54
2019-01-17T04:28:06.281Z,5.54
2019-01-17T04:30:39.952Z,5.54
2019-01-17T04:33:13.293Z,5.55
2019-01-17T04:35:46.363Z,5.55
2019-01-17T04:38:19.823Z,5.56
2019-01-17T04:40:53.047Z,5.55
2019-01-17T04:43:27.136Z,5.57
2019-01-17T04:45:59.902Z,5.55
2019-01-17T04:48:34.060Z,5.56
2019-01-17T04:51:07.122Z,5.54
2019-01-17T04:53:46.234Z,5.55
2019-01-17T04:56:19.422Z,5.55
2019-01-17T04:58:52.483Z,5.55
2019-01-17T05:01:25.646Z,5.54
2019-01-17T05:03:58.645Z,5.54
2019-01-17T05:06:31.663Z,5.54
2019-01-17T05:09:07.733Z,5.55
2019-01-17T05:11:40.659Z,5.54
2019-01-17T05:14:13.690Z,5.54
2019-01-17T05:16:46.615Z,5.54
2019-01-17T05:19:19.688Z,5.52
2019-01-17T05:21:52.781Z,5.52
2019-01-17T05:24:27.308Z,5.52
2019-01-17T05:27:01.553Z,5.53
2019-01-17T05:29:36.512Z,5.53
2019-01-17T05:32:09.857Z,5.55
2019-01-17T05:34:42.967Z,5.55
2019-01-17T05:37:16.396Z,5.57
2019-01-17T05:39:49.327Z,5.58
2019-01-17T05:42:22.624Z,5.58
2019-01-17T05:44:56.247Z,5.59
2019-01-17T05:47:29.137Z,5.60
2019-01-17T05:50:03.195Z,5.60
2019-01-17T05:52:36.716Z,5.61
2019-01-17T05:55:10.265Z,5.61
2019-01-17T05:57:43.433Z,5.63
2019-01-17T06:00:20.839Z,5.63
2019-01-17T06:02:53.766Z,5.63
2019-01-17T06:05:27.101Z,5.63
2019-01-17T06:08:01.752Z,5.63
2019-01-17T06:10:34.824Z,5.62
2019-01-17T06:13:08.300Z,5.63
2019-01-17T06:15:44.249Z,5.62
2019-01-17T06:18:17.461Z,5.62
2019-01-17T06:20:50.457Z,5.62
2019-01-17T06:23:23.901Z,5.63
2019-01-17T06:25:56.820Z,5.61
2019-01-17T06:28:29.659Z,5.58
2019-01-17T06:31:04.517Z,5.52
2019-01-17T06:33:38.413Z,5.44
2019-01-17T06:36:12.244Z,5.35
2019-01-17T06:38:45.257Z,5.33
2019-01-17T06:41:19.274Z,5.31
2019-01-17T06:43:55.702Z,5.32
2019-01-17T06:46:28.801Z,5.37
2019-01-17T06:49:03.725Z,5.35
2019-01-17T06:51:36.718Z,5.37
2019-01-17T06:54:09.690Z,5.41
2019-01-17T06:56:42.759Z,5.45
2019-01-17T06:59:16.096Z,5.46
2019-01-17T07:01:49.580Z,5.48
2019-01-17T07:04:22.469Z,5.49
2019-01-17T07:06:55.504Z,5.49
2019-01-17T07:09:29.468Z,5.50
2019-01-17T07:12:03.222Z,5.49
2019-01-17T07:14:36.077Z,5.46
2019-01-17T07:17:09.049Z,5.39
2019-01-17T07:19:42.435Z,5.40
2019-01-17T07:22:15.521Z,5.41
2019-01-17T07:24:49.454Z,5.41
2019-01-17T07:27:23.785Z,5.39
2019-01-17T07:29:56.702Z,5.38
2019-01-17T07:32:29.663Z,5.30
2019-01-17T07:35:03.681Z,5.18
2019-01-17T07:37:37.716Z,5.16
2019-01-17T07:40:12.080Z,5.14
2019-01-17T07:42:45.209Z,5.13
2019-01-17T07:45:47.530Z,5.13
2019-01-17T07:48:22.237Z,5.16
2019-01-17T07:50:56.158Z,5.18
2019-01-17T07:53:29.248Z,5.16
2019-01-17T07:56:05.912Z,5.16
2019-01-17T07:58:40.359Z,5.17
2019-01-17T08:01:15.080Z,5.18
2019-01-17T08:03:49.422Z,5.16
2019-01-17T08:06:22.364Z,5.15
2019-01-17T08:08:56.072Z,5.17
2019-01-17T08:11:30.179Z,5.21
2019-01-17T08:14:03.848Z,5.22
2019-01-17T08:16:38.654Z,5.22
2019-01-17T08:19:13.201Z,5.24
2019-01-17T08:21:47.620Z,5.25
2019-01-17T08:24:23.071Z,5.26
2019-01-17T08:26:56.013Z,5.28
2019-01-17T08:29:29.058Z,5.30
2019-01-17T08:32:03.375Z,5.32
2019-01-17T08:34:36.518Z,5.35
2019-01-17T08:37:09.649Z,5.36
2019-01-17T08:39:43.582Z,5.37
2019-01-17T08:42:20.771Z,5.40
2019-01-17T08:44:55.683Z,5.41
2019-01-17T08:47:29.919Z,5.44
2019-01-17T08:50:03.776Z,5.46
2019-01-17T08:52:37.731Z,5.45
2019-01-17T08:55:13.976Z,5.45
2019-01-17T08:57:47.837Z,5.44
2019-01-17T09:00:24.149Z,5.46
2019-01-17T09:02:59.160Z,5.48
2019-01-17T09:05:33.902Z,5.49
2019-01-17T09:08:12.811Z,5.50
2019-01-17T09:10:47.131Z,5.51
2019-01-17T09:13:20.764Z,5.51
2019-01-17T09:15:55.876Z,5.51
2019-01-17T09:18:30.098Z,5.53
2019-01-17T09:21:03.422Z,5.57
2019-01-17T09:23:38.389Z,5.58
2019-01-17T09:26:13.247Z,5.63
2019-01-17T09:28:46.891Z,5.63
2019-01-17T09:31:20.478Z,5.62
2019-01-17T09:33:55.898Z,5.61
2019-01-17T09:36:29.794Z,5.62
2019-01-17T09:39:08.558Z,5.66
2019-01-17T09:41:43.555Z,5.67
2019-01-17T09:44:16.707Z,5.67
2019-01-17T09:46:52.057Z,5.66
2019-01-17T09:49:29.208Z,5.63
2019-01-17T09:52:05.108Z,5.62
2019-01-17T09:54:40.484Z,5.58
2019-01-17T09:57:14.526Z,5.57
2019-01-17T09:59:50.428Z,5.54
2019-01-17T10:02:24.081Z,5.53
2019-01-17T10:05:00.489Z,5.54
2019-01-17T10:07:34.844Z,5.53
2019-01-17T10:10:15.825Z,5.50
2019-01-17T10:12:50.525Z,5.47
2019-01-17T10:16:03.283Z,5.45
2019-01-17T10:19:05.527Z,5.42
2019-01-17T10:22:33.282Z,5.41
2019-01-17T10:25:57.256Z,5.40
2019-01-17T10:29:10.557Z,5.38
2019-01-17T10:32:25.953Z,5.33
2019-01-17T10:35:55.675Z,5.28
2019-01-17T10:38:47.434Z,5.25
2019-01-17T10:41:58.742Z,5.22
2019-01-17T10:45:12.729Z,5.19
2019-01-17T10:48:41.588Z,5.17
2019-01-17T10:52:26.087Z,5.16
2019-01-17T10:56:02.960Z,5.15
2019-01-17T10:59:16.391Z,5.11
2019-01-17T11:02:33.453Z,5.05
2019-01-17T11:05:49.947Z,4.98
2019-01-17T11:09:29.032Z,4.88
2019-01-17T11:12:26.321Z,4.85
2019-01-17T11:16:06.604Z,4.83
2019-01-17T11:19:08.071Z,4.83
2019-01-17T11:22:21.468Z,4.83
2019-01-17T11:25:35.530Z,4.82
2019-01-17T11:29:03.127Z,4.82
2019-01-17T11:32:15.725Z,4.76
2019-01-17T11:35:23.046Z,4.73
2019-01-17T11:38:33.789Z,4.66
2019-01-17T11:42:23.371Z,4.58
2019-01-17T11:45:42.395Z,4.58
2019-01-17T11:49:00.071Z,4.58
2019-01-17T11:52:44.100Z,4.60
2019-01-17T11:55:44.114Z,4.63
2019-01-17T11:59:12.710Z,4.65
2019-01-17T12:02:24.240Z,4.64
2019-01-17T12:04:57.315Z,4.65
2019-01-17T12:07:30.971Z,4.65
2019-01-17T12:10:09.524Z,4.63
2019-01-17T12:12:44.825Z,4.64
2019-01-17T12:15:19.012Z,4.67
2019-01-17T12:17:52.507Z,4.66
2019-01-17T12:20:26.786Z,4.65
2019-01-17T12:22:59.812Z,4.64
2019-01-17T12:25:33.978Z,4.58
2019-01-17T12:28:11.501Z,4.46
2019-01-17T12:30:48.790Z,4.38
2019-01-17T12:33:24.551Z,4.35
2019-01-17T12:36:00.321Z,4.35
2019-01-17T12:38:33.501Z,4.33
2019-01-17T12:41:08.644Z,4.24
2019-01-17T12:43:43.932Z,4.16
2019-01-17T12:46:18.513Z,4.14
2019-01-17T12:48:51.445Z,4.13
2019-01-17T12:51:27.085Z,4.14
2019-01-17T12:54:01.144Z,4.12
2019-01-17T12:56:36.434Z,4.10
2019-01-17T12:59:09.914Z,4.10
2019-01-17T13:01:44.108Z,4.00
2019-01-17T13:04:17.470Z,3.95
2019-01-17T13:06:56.825Z,3.92
2019-01-17T13:09:37.448Z,3.85
2019-01-17T13:12:11.909Z,3.80
2019-01-17T13:14:44.911Z,3.76
2019-01-17T13:17:19.058Z,3.71
2019-01-17T13:19:54.475Z,3.60
2019-01-17T13:22:27.705Z,3.56
2019-01-17T13:25:00.989Z,3.57
2019-01-17T13:27:36.552Z,3.58
2019-01-17T13:30:17.555Z,3.59
2019-01-17T13:32:50.823Z,3.59
2019-01-17T13:35:25.214Z,3.59
2019-01-17T13:37:58.953Z,3.59
2019-01-17T13:40:31.956Z,3.58
2019-01-17T13:43:06.571Z,3.59
2019-01-17T13:45:39.585Z,3.59
2019-01-17T13:48:12.745Z,3.62
2019-01-17T13:50:48.643Z,3.63
2019-01-17T13:53:22.761Z,3.58
2019-01-17T13:55:56.659Z,3.57
2019-01-17T13:58:34.579Z,3.58
2019-01-17T14:01:08.703Z,3.60
2019-01-17T14:03:43.231Z,3.61
2019-01-17T14:06:19.159Z,3.62
2019-01-17T14:08:52.592Z,3.62
2019-01-17T14:11:29.195Z,3.67
2019-01-17T14:14:03.762Z,3.67
2019-01-17T14:16:39.164Z,3.66
2019-01-17T14:19:22.879Z,3.66
2019-01-17T14:21:57.637Z,3.68
2019-01-17T14:24:45.298Z,3.70
2019-01-17T14:27:25.320Z,3.78
2019-01-17T14:29:58.993Z,3.75
2019-01-17T14:32:32.177Z,3.93
2019-01-17T14:35:06.645Z,4.17
2019-01-17T14:37:40.301Z,4.18
2019-01-17T14:40:14.525Z,4.10
2019-01-17T14:42:48.261Z,4.04
2019-01-17T14:45:23.501Z,3.92
2019-01-17T14:47:59.410Z,3.80
2019-01-17T14:50:34.481Z,3.71
2019-01-17T14:53:07.704Z,3.66
2019-01-17T14:55:43.345Z,3.68
2019-01-17T14:58:18.387Z,3.64
2019-01-17T15:00:53.273Z,3.62
2019-01-17T15:03:28.112Z,3.59
2019-01-17T15:06:06.641Z,3.55
2019-01-17T15:08:42.313Z,3.54
2019-01-17T15:11:17.497Z,3.52
2019-01-17T15:13:54.226Z,3.52
2019-01-17T15:16:31.277Z,3.52
2019-01-17T15:19:08.525Z,3.47
2019-01-17T15:21:41.621Z,3.37
2019-01-17T15:24:15.543Z,3.14
2019-01-17T15:26:50.132Z,2.75
2019-01-17T15:29:25.020Z,2.49
2019-01-17T15:32:02.446Z,2.37
2019-01-17T15:34:36.408Z,2.30
2019-01-17T15:37:10.493Z,2.27
2019-01-17T15:39:44.035Z,2.23
2019-01-17T15:42:17.629Z,2.22
2019-01-17T15:44:55.061Z,2.24
2019-01-17T15:47:32.560Z,2.26
2019-01-17T15:50:11.478Z,2.30
2019-01-17T15:52:45.414Z,2.32
2019-01-17T15:55:20.748Z,2.33
2019-01-17T15:57:54.765Z,2.26
2019-01-17T16:00:35.465Z,2.20
2019-01-17T16:03:13.741Z,2.18
2019-01-17T16:05:51.266Z,2.13
2019-01-17T16:08:25.235Z,2.11
2019-01-17T16:11:00.014Z,2.14
2019-01-17T16:13:34.271Z,2.08
2019-01-17T16:16:11.396Z,2.00
2019-01-17T16:18:48.545Z,1.96
2019-01-17T16:21:25.915Z,1.91
2019-01-17T16:24:00.693Z,1.91
2019-01-17T16:26:35.825Z,1.93
2019-01-17T16:29:12.766Z,1.96
2019-01-17T16:31:47.773Z,2.00
2019-01-17T16:34:22.779Z,2.03
2019-01-17T16:37:04.923Z,2.07
2019-01-17T16:39:40.710Z,2.12
2019-01-17T16:42:14.953Z,2.16
2019-01-17T16:44:48.205Z,2.20
2019-01-17T16:47:22.180Z,2.28
2019-01-17T16:49:56.236Z,2.34
2019-01-17T16:52:29.989Z,2.38
2019-01-17T16:55:05.957Z,2.41
2019-01-17T16:57:49.124Z,2.46
2019-01-17T17:00:41.851Z,2.48
2019-01-17T17:03:15.713Z,2.54
2019-01-17T17:05:51.712Z,2.56
2019-01-17T17:08:26.674Z,2.61
2019-01-17T17:11:00.078Z,2.67
2019-01-17T17:13:33.803Z,2.65
2019-01-17T17:16:10.919Z,2.64
2019-01-17T17:18:45.300Z,2.65
2019-01-17T17:21:21.042Z,2.68
2019-01-17T17:23:54.663Z,2.67
2019-01-17T17:26:28.930Z,2.65
2019-01-17T17:29:05.805Z,2.63
2019-01-17T17:31:43.944Z,2.64
2019-01-17T17:34:18.953Z,2.64
2019-01-17T17:36:53.253Z,2.62
2019-01-17T17:39:27.939Z,2.59
2019-01-17T17:42:10.813Z,2.59
2019-01-17T17:44:47.204Z,2.56
2019-01-17T17:47:20.633Z,2.54
2019-01-17T17:49:56.406Z,2.51
2019-01-17T17:52:31.397Z,2.49
2019-01-17T17:55:12.391Z,2.47
2019-01-17T17:57:46.990Z,2.46
2019-01-17T18:00:40.689Z,2.46
2019-01-17T18:03:17.646Z,2.45
2019-01-17T18:05:51.109Z,2.44
2019-01-17T18:08:26.552Z,2.42
2019-01-17T18:11:02.159Z,2.40
2019-01-17T18:13:36.319Z,2.40
2019-01-17T18:16:10.055Z,2.37
2019-01-17T18:18:43.546Z,2.33
2019-01-17T18:21:20.733Z,2.32
2019-01-17T18:23:54.968Z,2.27
2019-01-17T18:26:29.964Z,2.27
2019-01-17T18:29:10.001Z,2.23
2019-01-17T18:31:43.714Z,2.19
2019-01-17T18:34:19.191Z,2.16
2019-01-17T18:36:56.446Z,2.32
2019-01-17T18:39:29.922Z,2.20
2019-01-17T18:42:05.573Z,2.09
2019-01-17T18:44:39.242Z,2.02
2019-01-17T18:47:15.782Z,1.95
2019-01-17T18:49:52.812Z,1.91
2019-01-17T18:52:32.484Z,1.89
2019-01-17T18:55:08.102Z,1.90
2019-01-17T18:57:42.893Z,1.89
2019-01-17T19:00:24.518Z,1.85
2019-01-17T19:03:01.325Z,1.82
2019-01-17T19:05:39.881Z,1.81
2019-01-17T19:08:15.980Z,1.79
2019-01-17T19:10:50.177Z,1.80
2019-01-17T19:13:25.207Z,1.78
2019-01-17T19:15:58.263Z,1.78
2019-01-17T19:18:32.142Z,1.78
2019-01-17T19:21:08.860Z,1.77
2019-01-17T19:23:45.274Z,1.75
2019-01-17T19:26:22.074Z,1.75
2019-01-17T19:28:55.824Z,1.74
2019-01-17T19:31:31.561Z,1.74
2019-01-17T19:34:09.830Z,1.77
2019-01-17T19:36:44.082Z,1.77
2019-01-17T19:39:21.080Z,1.80
2019-01-17T19:41:54.951Z,1.79
2019-01-17T19:44:31.403Z,1.78
2019-01-17T19:47:11.367Z,1.78
2019-01-17T19:49:51.398Z,1.77
2019-01-17T19:52:27.718Z,1.80
2019-01-17T19:55:03.180Z,1.78
2019-01-17T19:57:40.527Z,1.81
2019-01-17T20:00:22.763Z,1.81
2019-01-17T20:02:56.425Z,1.82
2019-01-17T20:05:32.078Z,1.79
2019-01-17T20:08:07.892Z,1.77
2019-01-17T20:10:43.586Z,1.75
2019-01-17T20:13:18.306Z,1.76
2019-01-17T20:16:10.825Z,1.75
2019-01-17T20:18:45.961Z,1.76
2019-01-17T20:21:21.738Z,1.74
2019-01-17T20:23:58.095Z,1.74
2019-01-17T20:26:32.840Z,1.72
2019-01-17T20:29:10.766Z,1.71
2019-01-17T20:31:52.582Z,1.69
2019-01-17T20:34:28.621Z,1.69
2019-01-17T20:37:05.574Z,1.70
2019-01-17T20:39:44.599Z,1.69
2019-01-17T20:42:20.131Z,1.70
2019-01-17T20:45:10.204Z,1.69
2019-01-17T20:47:46.120Z,1.67
2019-01-17T20:50:25.749Z,1.71
2019-01-17T20:53:00.325Z,1.70
2019-01-17T20:55:34.616Z,1.70
2019-01-17T20:58:08.948Z,1.70
2019-01-17T21:01:04.421Z,1.71
2019-01-17T21:03:39.431Z,1.72
2019-01-17T21:06:20.991Z,1.72
2019-01-17T21:08:54.996Z,1.73
2019-01-17T21:11:37.311Z,1.71
2019-01-17T21:14:13.120Z,1.69
2019-01-17T21:16:46.620Z,1.70
2019-01-17T21:19:22.090Z,1.73
2019-01-17T21:21:59.804Z,1.71
2019-01-17T21:24:36.200Z,1.64
2019-01-17T21:27:15.360Z,1.59
2019-01-17T21:29:52.183Z,1.51
2019-01-17T21:32:26.766Z,1.47
2019-01-17T21:35:02.170Z,1.51
2019-01-17T21:37:36.371Z,1.51
2019-01-17T21:40:17.651Z,1.49
2019-01-17T21:42:51.773Z,1.46
2019-01-17T21:45:25.802Z,1.42
2019-01-17T21:48:00.393Z,1.41
2019-01-17T21:50:34.224Z,1.42
2019-01-17T21:53:09.846Z,1.41
2019-01-17T21:55:48.032Z,1.42
2019-01-17T21:58:25.825Z,1.42
2019-01-17T22:00:59.872Z,1.40
2019-01-17T22:03:34.536Z,1.39
2019-01-17T22:06:08.140Z,1.38
2019-01-17T22:08:43.754Z,1.36
2019-01-17T22:11:20.241Z,1.35
2019-01-17T22:13:55.089Z,1.33
2019-01-17T22:16:31.075Z,1.31
2019-01-17T22:19:08.185Z,1.33
2019-01-17T22:21:42.053Z,1.33
2019-01-17T22:24:18.544Z,1.33
2019-01-17T22:26:52.540Z,1.34
2019-01-17T22:29:27.492Z,1.34
2019-01-17T22:32:00.881Z,1.34
2019-01-17T22:34:39.336Z,1.34
2019-01-17T22:37:12.364Z,1.36
2019-01-17T22:39:47.743Z,1.37
2019-01-17T22:42:22.344Z,1.38
2019-01-17T22:44:56.261Z,1.38
2019-01-17T22:47:29.856Z,1.39
2019-01-17T22:50:03.156Z,1.40
2019-01-17T22:52:36.230Z,1.42
2019-01-17T22:55:09.907Z,1.46
2019-01-17T22:57:43.084Z,1.44
2019-01-17T23:00:48.263Z,1.44
2019-01-17T23:03:36.336Z,1.50
2019-01-17T23:06:09.273Z,1.52
2019-01-17T23:08:42.647Z,1.49
2019-01-17T23:11:15.911Z,1.47
2019-01-17T23:13:52.283Z,1.43
2019-01-17T23:16:26.533Z,1.43
2019-01-17T23:19:01.304Z,1.42
2019-01-17T23:21:35.509Z,1.42
2019-01-17T23:24:10.193Z,1.42
2019-01-17T23:26:43.291Z,1.43
2019-01-17T23:29:16.700Z,1.39
2019-01-17T23:31:50.391Z,1.38
2019-01-17T23:34:23.407Z,1.39
2019-01-17T23:36:56.918Z,1.41
2019-01-17T23:39:30.063Z,1.44
2019-01-17T23:42:03.331Z,1.44
2019-01-17T23:44:36.798Z,1.44
2019-01-17T23:47:15.567Z,1.42
2019-01-17T23:49:49.506Z,1.45
2019-01-17T23:52:24.617Z,1.45
2019-01-17T23:54:57.617Z,1.46
2019-01-17T23:57:30.950Z,1.48
